createdAt,value
2023-04-17T00:00:20.831Z,11.25
2023-04-17T00:02:48.063Z,6.85
2023-04-17T00:05:16.927Z,11.10
2023-04-17T00:07:44.945Z,8.82
2023-04-17T00:10:12.341Z,12.18
2023-04-17T00:12:39.306Z,7.90
2023-04-17T00:15:06.835Z,6.20
2023-04-17T00:17:33.868Z,7.80
2023-04-17T00:20:00.890Z,6.50
2023-04-17T00:22:27.875Z,10.07
2023-04-17T00:24:54.929Z,9.50
2023-04-17T00:27:21.915Z,8.30
2023-04-17T00:29:48.860Z,10.57
2023-04-17T00:32:15.972Z,9.23
2023-04-17T00:34:42.959Z,14.15
2023-04-17T00:37:09.952Z,11.38
2023-04-17T00:39:36.947Z,13.15
2023-04-17T00:42:04.100Z,13.52
2023-04-17T00:44:31.115Z,13.05
2023-04-17T00:46:58.168Z,14.40
2023-04-17T00:49:26.232Z,18.70
2023-04-17T00:51:53.790Z,18.77
2023-04-17T00:54:22.937Z,21.23
2023-04-17T00:56:52.063Z,25.05
2023-04-17T00:59:19.245Z,17.88
2023-04-17T01:01:46.936Z,16.95
2023-04-17T01:04:14.189Z,15.63
2023-04-17T01:06:42.169Z,16.55
2023-04-17T01:09:09.400Z,16.45
2023-04-17T01:11:37.183Z,15.95
2023-04-17T01:14:04.230Z,14.02
2023-04-17T01:16:31.195Z,13.95
2023-04-17T01:18:58.731Z,15.02
2023-04-17T01:21:25.872Z,14.48
2023-04-17T01:23:53.422Z,20.42
2023-04-17T01:26:24.445Z,16.13
2023-04-17T01:28:59.778Z,16.90
2023-04-17T01:31:29.433Z,18.58
2023-04-17T01:33:56.596Z,11.60
2023-04-17T01:36:23.628Z,13.85
2023-04-17T01:38:50.775Z,16.63
2023-04-17T01:41:18.686Z,16.52
2023-04-17T01:43:47.664Z,16.92
2023-04-17T01:46:14.883Z,18.40
2023-04-17T01:48:42.010Z,19.20
2023-04-17T01:51:09.409Z,20.30
2023-04-17T01:53:36.699Z,19.17
2023-04-17T01:56:04.003Z,17.90
2023-04-17T01:58:31.760Z,23.90
2023-04-17T02:00:59.830Z,17.83
2023-04-17T02:03:27.027Z,20.02
2023-04-17T02:05:54.191Z,20.63
2023-04-17T02:08:21.184Z,21.17
2023-04-17T02:10:48.284Z,20.60
2023-04-17T02:13:15.656Z,21.40
2023-04-17T02:15:42.976Z,21.83
2023-04-17T02:18:10.513Z,19.48
2023-04-17T02:20:38.503Z,18.50
2023-04-17T02:23:06.994Z,19.35
2023-04-17T02:25:34.528Z,22.23
2023-04-17T02:28:01.794Z,18.05
2023-04-17T02:30:29.179Z,22.95
2023-04-17T02:32:57.750Z,23.08
2023-04-17T02:35:28.380Z,22.98
2023-04-17T02:37:57.151Z,21.25
2023-04-17T02:40:24.788Z,24.55
2023-04-17T02:42:58.345Z,21.42
2023-04-17T02:45:25.514Z,21.80
2023-04-17T02:47:52.734Z,22.45
2023-04-17T02:50:19.907Z,25.00
2023-04-17T02:53:13.308Z,21.00
2023-04-17T02:55:40.407Z,23.90
2023-04-17T02:58:07.603Z,24.92
2023-04-17T03:00:34.720Z,22.48
2023-04-17T03:03:03.422Z,24.00
2023-04-17T03:05:30.819Z,21.30
2023-04-17T03:08:00.347Z,28.60
2023-04-17T03:10:32.276Z,25.08
2023-04-17T03:12:59.336Z,28.80
2023-04-17T03:15:27.190Z,27.73
2023-04-17T03:17:54.268Z,25.60
2023-04-17T03:20:21.647Z,31.77
2023-04-17T03:22:48.746Z,28.73
2023-04-17T03:25:15.896Z,31.10
2023-04-17T03:27:51.955Z,33.70
2023-04-17T03:30:21.591Z,30.83
2023-04-17T03:32:50.991Z,25.60
2023-04-17T03:35:18.123Z,22.10
2023-04-17T03:37:45.233Z,23.15
2023-04-17T03:40:13.432Z,17.90
2023-04-17T03:42:43.814Z,20.40
2023-04-17T03:45:11.115Z,17.58
2023-04-17T03:47:38.831Z,15.40
2023-04-17T03:50:06.926Z,14.43
2023-04-17T03:52:39.548Z,17.30
2023-04-17T03:55:07.453Z,14.98
2023-04-17T03:57:34.470Z,16.17
2023-04-17T04:00:01.550Z,13.88
2023-04-17T04:02:45.609Z,14.63
2023-04-17T04:05:18.633Z,19.55
2023-04-17T04:07:46.312Z,17.13
2023-04-17T04:10:19.129Z,18.30
2023-04-17T04:12:46.059Z,19.20
2023-04-17T04:15:14.245Z,17.30
2023-04-17T04:17:41.712Z,18.05
2023-04-17T04:20:10.834Z,21.40
2023-04-17T04:22:37.937Z,19.02
2023-04-17T04:25:06.747Z,21.02
2023-04-17T04:27:49.768Z,19.10
2023-04-17T04:30:25.582Z,20.98
2023-04-17T04:33:01.326Z,18.85
2023-04-17T04:35:30.680Z,19.55
2023-04-17T04:38:03.163Z,19.65
2023-04-17T04:40:38.218Z,19.15
2023-04-17T04:43:07.001Z,20.55
2023-04-17T04:45:39.635Z,20.55
2023-04-17T04:48:06.698Z,23.60
2023-04-17T04:50:33.635Z,20.15
2023-04-17T04:53:00.576Z,19.95
2023-04-17T04:55:48.372Z,20.90
2023-04-17T04:58:15.431Z,17.65
2023-04-17T05:00:45.128Z,21.38
2023-04-17T05:03:18.406Z,19.87
2023-04-17T05:05:46.409Z,19.08
2023-04-17T05:08:15.382Z,26.48
2023-04-17T05:10:47.585Z,21.60
2023-04-17T05:13:14.835Z,16.27
2023-04-17T05:15:41.907Z,20.58
2023-04-17T05:18:10.007Z,17.70
2023-04-17T05:20:38.350Z,23.17
2023-04-17T05:23:06.120Z,19.95
2023-04-17T05:25:33.021Z,21.95
2023-04-17T05:28:03.480Z,17.65
2023-04-17T05:30:30.722Z,17.35
2023-04-17T05:33:09.012Z,19.40
2023-04-17T05:35:46.150Z,16.95
2023-04-17T05:38:13.232Z,18.77
2023-04-17T05:40:40.129Z,21.40
2023-04-17T05:43:12.089Z,17.55
2023-04-17T05:45:41.676Z,20.33
2023-04-17T05:48:09.561Z,20.55
2023-04-17T05:50:37.733Z,19.05
2023-04-17T05:53:06.543Z,20.02
2023-04-17T05:55:38.128Z,20.65
2023-04-17T05:58:23.094Z,15.05
2023-04-17T06:00:53.045Z,23.88
2023-04-17T06:03:21.338Z,19.08
2023-04-17T06:05:52.753Z,23.75
2023-04-17T06:08:19.813Z,19.35
2023-04-17T06:10:50.183Z,20.10
2023-04-17T06:13:17.647Z,13.07
2023-04-17T06:15:48.630Z,18.67
2023-04-17T06:18:17.667Z,17.58
2023-04-17T06:20:46.185Z,18.88
2023-04-17T06:23:13.694Z,20.88
2023-04-17T06:25:40.803Z,16.88
2023-04-17T06:28:07.632Z,17.20
2023-04-17T06:30:35.066Z,17.08
2023-04-17T06:33:03.422Z,21.30
2023-04-17T06:35:31.064Z,16.85
2023-04-17T06:38:07.115Z,18.48
2023-04-17T06:40:34.388Z,14.18
2023-04-17T06:43:04.817Z,19.60
2023-04-17T06:45:33.540Z,15.02
2023-04-17T06:48:00.612Z,17.35
2023-04-17T06:50:28.621Z,22.17
2023-04-17T06:52:55.480Z,18.45
2023-04-17T06:55:22.380Z,17.95
2023-04-17T06:57:49.266Z,22.33
2023-04-17T07:00:16.517Z,12.77
2023-04-17T07:02:43.580Z,19.23
2023-04-17T07:05:10.883Z,19.75
2023-04-17T07:07:37.960Z,14.65
2023-04-17T07:10:06.543Z,23.13
2023-04-17T07:12:33.979Z,15.60
2023-04-17T07:15:00.974Z,22.60
2023-04-17T07:17:28.226Z,16.60
2023-04-17T07:19:55.196Z,17.02
2023-04-17T07:22:24.025Z,13.98
2023-04-17T07:24:52.192Z,14.80
2023-04-17T07:40:18.501Z,17.52
2023-04-17T07:42:45.540Z,19.50
2023-04-17T07:45:12.455Z,21.05
2023-04-17T07:47:39.470Z,24.33
2023-04-17T07:50:07.197Z,30.30
2023-04-17T07:52:34.130Z,27.08
2023-04-17T07:55:01.102Z,25.10
2023-04-17T07:57:28.031Z,19.45
2023-04-17T07:59:54.958Z,28.70
2023-04-17T08:02:22.853Z,17.65
2023-04-17T08:04:50.598Z,23.40
2023-04-17T08:07:19.621Z,19.42
2023-04-17T08:09:47.518Z,7.30
2023-04-17T08:12:14.686Z,6.75
2023-04-17T08:14:43.717Z,5.85
2023-04-17T08:17:10.816Z,4.88
2023-04-17T08:19:37.775Z,8.63
2023-04-17T08:22:06.651Z,3.50
2023-04-17T08:24:33.556Z,3.45
2023-04-17T08:27:00.653Z,4.10
2023-04-17T08:29:27.810Z,4.53
2023-04-17T08:32:10.422Z,4.05
2023-04-17T08:34:40.903Z,4.57
2023-04-17T08:37:07.802Z,6.25
2023-04-17T08:39:34.777Z,4.40
2023-04-17T08:42:06.778Z,4.43
2023-04-17T08:44:33.909Z,4.43
2023-04-17T08:47:01.086Z,4.03
2023-04-17T08:49:34.196Z,6.07
2023-04-17T08:52:04.592Z,4.90
2023-04-17T08:54:33.576Z,4.03
2023-04-17T08:57:04.690Z,2.65
2023-04-17T08:59:34.736Z,3.33
2023-04-17T09:02:07.249Z,3.95
2023-04-17T09:04:42.672Z,4.85
2023-04-17T09:07:12.388Z,2.40
2023-04-17T09:09:53.314Z,3.83
2023-04-17T09:12:24.705Z,2.97
2023-04-17T09:14:51.704Z,3.50
2023-04-17T09:17:20.542Z,9.13
2023-04-17T09:20:09.416Z,2.78
2023-04-17T09:22:40.246Z,5.13
2023-04-17T09:25:20.754Z,5.28
2023-04-17T09:27:47.846Z,8.73
2023-04-17T09:30:15.167Z,3.45
2023-04-17T09:32:42.288Z,3.50
2023-04-17T09:35:09.614Z,2.75
2023-04-17T09:37:59.408Z,3.15
2023-04-17T09:40:28.704Z,4.05
2023-04-17T09:43:01.578Z,3.47
2023-04-17T09:45:35.639Z,9.63
2023-04-17T09:48:13.727Z,3.13
2023-04-17T09:50:40.989Z,3.42
2023-04-17T09:53:09.281Z,6.78
2023-04-17T09:55:38.276Z,3.70
2023-04-17T09:58:09.116Z,10.27
2023-04-17T10:00:37.975Z,2.53
2023-04-17T10:03:07.216Z,3.67
2023-04-17T10:05:35.874Z,4.88
2023-04-17T10:08:03.176Z,4.53
2023-04-17T10:10:33.794Z,3.40
2023-04-17T10:13:03.069Z,3.95
2023-04-17T10:15:31.383Z,5.95
2023-04-17T10:18:25.485Z,7.95
2023-04-17T10:20:54.030Z,3.87
2023-04-17T10:23:35.105Z,3.08
2023-04-17T10:26:29.421Z,4.22
2023-04-17T10:28:59.387Z,4.13
2023-04-17T10:32:04.187Z,4.43
2023-04-17T10:34:39.581Z,3.13
2023-04-17T10:37:08.185Z,3.17
2023-04-17T10:40:00.289Z,3.33
2023-04-17T10:42:30.126Z,1.70
2023-04-17T10:45:04.213Z,2.22
2023-04-17T10:47:33.685Z,3.38
2023-04-17T10:50:10.031Z,3.00
2023-04-17T10:52:41.628Z,3.53
2023-04-17T10:55:17.626Z,2.40
2023-04-17T10:58:12.025Z,1.83
2023-04-17T11:00:49.568Z,1.35
2023-04-17T11:03:17.566Z,4.97
2023-04-17T11:05:48.207Z,2.40
2023-04-17T11:08:15.783Z,2.53
2023-04-17T11:10:42.985Z,2.05
2023-04-17T11:13:10.654Z,2.10
2023-04-17T11:15:37.681Z,3.00
2023-04-17T11:18:04.692Z,2.42
2023-04-17T11:20:36.124Z,2.22
2023-04-17T11:23:04.541Z,2.13
2023-04-17T11:25:34.409Z,6.20
2023-04-17T11:28:05.384Z,2.08
2023-04-17T11:30:38.302Z,1.83
2023-04-17T11:33:08.034Z,2.80
2023-04-17T11:35:37.449Z,2.97
2023-04-17T11:38:14.874Z,2.80
2023-04-17T11:40:50.926Z,2.47
2023-04-17T11:43:19.479Z,2.13
2023-04-17T11:45:48.913Z,2.80
2023-04-17T11:48:19.606Z,3.80
2023-04-17T11:50:46.586Z,2.30
2023-04-17T11:53:17.472Z,4.15
2023-04-17T11:55:45.294Z,3.90
2023-04-17T11:58:13.927Z,3.58
2023-04-17T12:00:41.291Z,3.85
2023-04-17T12:03:37.383Z,4.07
2023-04-17T12:06:06.709Z,3.42
2023-04-17T12:08:45.876Z,4.88
2023-04-17T12:11:36.281Z,4.70
2023-04-17T12:14:05.337Z,3.70
2023-04-17T12:16:32.364Z,5.25
2023-04-17T12:18:59.415Z,4.97
2023-04-17T12:21:26.440Z,4.05
2023-04-17T12:23:53.394Z,4.68
2023-04-17T12:26:20.513Z,3.33
2023-04-17T12:28:47.553Z,4.15
2023-04-17T12:31:14.617Z,3.55
2023-04-17T12:33:41.734Z,4.10
2023-04-17T12:36:09.480Z,3.13
2023-04-17T12:38:36.584Z,7.50
2023-04-17T12:41:03.605Z,12.63
2023-04-17T12:43:33.227Z,3.35
2023-04-17T12:46:00.253Z,3.78
2023-04-17T12:48:27.459Z,3.92
2023-04-17T12:50:54.621Z,3.22
2023-04-17T12:53:21.788Z,3.58
2023-04-17T12:55:48.688Z,3.10
2023-04-17T12:58:16.111Z,3.20
2023-04-17T13:00:44.270Z,2.65
2023-04-17T13:03:12.261Z,4.03
2023-04-17T13:05:39.710Z,3.10
2023-04-17T13:08:06.694Z,4.10
2023-04-17T13:10:34.422Z,2.17
2023-04-17T13:13:02.392Z,2.10
2023-04-17T13:15:29.406Z,2.38
2023-04-17T13:17:56.420Z,2.92
2023-04-17T13:20:26.469Z,14.05
2023-04-17T13:22:53.368Z,15.23
2023-04-17T13:25:20.331Z,13.90
2023-04-17T13:27:47.527Z,15.50
2023-04-17T13:30:14.696Z,14.43
2023-04-17T13:32:42.936Z,14.15
2023-04-17T13:35:13.081Z,12.75
2023-04-17T13:37:41.453Z,18.33
2023-04-17T13:40:12.263Z,19.77
2023-04-17T13:42:39.234Z,14.13
2023-04-17T13:45:07.512Z,13.40
2023-04-17T13:47:34.539Z,16.38
2023-04-17T13:50:01.799Z,16.63
2023-04-17T13:52:28.937Z,21.50
2023-04-17T13:54:55.903Z,14.82
2023-04-17T13:57:22.783Z,12.00
2023-04-17T13:59:49.836Z,19.85
2023-04-17T14:02:16.911Z,18.02
2023-04-17T14:04:44.203Z,14.65
2023-04-17T14:07:12.871Z,19.45
2023-04-17T14:09:39.997Z,21.45
2023-04-17T14:12:06.979Z,19.88
2023-04-17T14:14:33.944Z,10.35
2023-04-17T14:17:00.943Z,16.70
2023-04-17T14:19:27.805Z,13.93
2023-04-17T14:21:54.695Z,14.30
2023-04-17T14:24:21.539Z,21.45
2023-04-17T14:26:48.453Z,15.82
2023-04-17T14:29:15.562Z,19.60
2023-04-17T14:31:42.456Z,21.08
2023-04-17T14:34:09.511Z,14.10
2023-04-17T14:36:36.500Z,16.90
2023-04-17T14:39:03.899Z,17.50
2023-04-17T14:41:34.205Z,21.23
2023-04-17T14:44:01.449Z,15.15
2023-04-17T14:46:28.597Z,16.88
2023-04-17T14:48:56.401Z,14.10
2023-04-17T14:51:27.410Z,14.48
2023-04-17T14:53:54.429Z,13.07
2023-04-17T14:56:23.894Z,14.93
2023-04-17T14:58:50.884Z,13.40
2023-04-17T15:01:17.892Z,14.70
2023-04-17T15:03:47.691Z,15.20
2023-04-17T15:06:16.388Z,17.02
2023-04-17T15:08:43.321Z,15.57
2023-04-17T15:11:10.484Z,21.23
2023-04-17T15:13:39.582Z,13.63
2023-04-17T15:16:08.982Z,16.95
2023-04-17T15:18:36.491Z,16.80
2023-04-17T15:21:03.462Z,14.25
2023-04-17T15:23:30.479Z,18.85
2023-04-17T15:25:58.229Z,17.98
2023-04-17T15:28:25.675Z,16.13
2023-04-17T15:30:52.547Z,23.75
2023-04-17T15:33:20.044Z,22.13
2023-04-17T15:35:47.423Z,16.00
2023-04-17T15:38:14.415Z,21.05
2023-04-17T15:40:41.336Z,27.23
2023-04-17T15:43:10.749Z,23.10
2023-04-17T15:45:37.954Z,28.05
2023-04-17T15:48:05.339Z,22.80
2023-04-17T15:50:32.346Z,18.05
2023-04-17T15:52:59.330Z,23.35
2023-04-17T15:55:26.207Z,25.17
2023-04-17T15:57:53.105Z,24.17
2023-04-17T16:00:20.664Z,21.15
2023-04-17T16:02:49.137Z,21.17
2023-04-17T16:05:16.916Z,30.25
2023-04-17T16:07:44.659Z,17.58
2023-04-17T16:10:15.398Z,19.58
2023-04-17T16:12:43.413Z,14.73
2023-04-17T16:15:11.928Z,31.40
2023-04-17T16:17:38.942Z,21.63
2023-04-17T16:20:06.947Z,23.42
2023-04-17T16:22:33.964Z,22.45
2023-04-17T16:25:01.857Z,24.80
2023-04-17T16:27:29.747Z,24.75
2023-04-17T16:29:56.707Z,21.35
2023-04-17T16:32:25.046Z,19.30
2023-04-17T16:34:52.877Z,24.25
2023-04-17T16:37:19.898Z,24.20
2023-04-17T16:39:47.327Z,18.42
2023-04-17T16:42:14.761Z,20.90
2023-04-17T16:44:41.757Z,17.90
2023-04-17T16:47:14.165Z,21.90
2023-04-17T16:49:42.411Z,15.82
2023-04-17T16:52:09.758Z,18.45
2023-04-17T16:54:36.792Z,20.27
2023-04-17T16:57:04.894Z,21.48
2023-04-17T16:59:32.443Z,17.60
2023-04-17T17:02:02.426Z,16.40
2023-04-17T17:04:30.688Z,17.77
2023-04-17T17:06:57.938Z,31.38
2023-04-17T17:09:26.073Z,31.73
2023-04-17T17:11:53.360Z,18.17
2023-04-17T17:14:20.491Z,21.58
2023-04-17T17:16:47.453Z,15.75
2023-04-17T17:19:15.040Z,18.35
2023-04-17T17:21:42.094Z,17.98
2023-04-17T17:24:09.097Z,19.77
2023-04-17T17:26:37.055Z,28.15
2023-04-17T17:29:04.274Z,20.63
2023-04-17T17:31:33.222Z,16.60
2023-04-17T17:34:11.857Z,18.80
2023-04-17T17:36:49.360Z,17.45
2023-04-17T17:39:16.637Z,17.48
2023-04-17T17:41:45.810Z,23.42
2023-04-17T17:44:14.522Z,27.40
2023-04-17T17:46:41.684Z,19.77
2023-04-17T17:49:08.658Z,18.83
2023-04-17T17:51:35.723Z,16.95
2023-04-17T17:54:02.582Z,21.45
2023-04-17T17:56:31.447Z,18.65
2023-04-17T17:58:58.397Z,18.48
2023-04-17T18:01:25.599Z,19.85
2023-04-17T18:03:53.578Z,24.27
2023-04-17T18:06:21.360Z,15.77
2023-04-17T18:08:48.632Z,30.15
2023-04-17T18:11:15.739Z,19.75
2023-04-17T18:13:42.636Z,20.67
2023-04-17T18:16:09.750Z,22.30
2023-04-17T18:18:36.831Z,23.88
2023-04-17T18:21:08.266Z,24.33
2023-04-17T18:23:35.896Z,20.13
2023-04-17T18:26:03.449Z,21.92
2023-04-17T18:28:30.969Z,23.58
2023-04-17T18:30:58.242Z,22.08
2023-04-17T18:36:09.862Z,21.27
2023-04-17T18:38:53.270Z,18.63
2023-04-17T18:41:21.576Z,24.52
2023-04-17T18:43:48.500Z,14.85
2023-04-17T18:46:15.350Z,18.73
2023-04-17T18:48:42.282Z,18.02
2023-04-17T18:51:14.498Z,15.25
2023-04-17T18:53:41.486Z,22.67
2023-04-17T18:56:10.849Z,17.92
2023-04-17T18:58:40.462Z,19.42
2023-04-17T19:01:09.479Z,20.90
2023-04-17T19:03:39.973Z,22.33
2023-04-17T19:06:07.016Z,19.73
2023-04-17T19:08:34.917Z,19.33
2023-04-17T19:11:02.290Z,17.67
2023-04-17T19:13:29.284Z,24.85
2023-04-17T19:15:56.308Z,18.80
2023-04-17T19:18:24.240Z,18.83
2023-04-17T19:20:51.107Z,21.58
2023-04-17T19:23:17.958Z,17.73
2023-04-17T19:25:44.777Z,22.27
2023-04-17T19:42:05.813Z,21.50
2023-04-17T19:44:32.824Z,23.02
2023-04-17T19:46:59.873Z,21.92
2023-04-17T19:49:26.825Z,16.15
2023-04-17T19:51:53.750Z,23.92
2023-04-17T19:54:20.665Z,22.55
2023-04-17T19:56:47.657Z,21.05
2023-04-17T19:59:14.874Z,18.60
2023-04-17T20:01:43.756Z,15.82
2023-04-17T20:04:11.163Z,20.02
2023-04-17T20:06:41.381Z,15.20
2023-04-17T20:09:08.598Z,17.70
2023-04-17T20:11:35.462Z,25.52
2023-04-17T20:14:03.739Z,17.77
2023-04-17T20:16:31.205Z,17.08
2023-04-17T20:18:58.220Z,22.27
2023-04-17T20:21:25.070Z,20.42
2023-04-17T20:23:52.732Z,16.35
2023-04-17T20:26:19.676Z,18.02
2023-04-17T20:28:48.946Z,15.50
2023-04-17T20:31:16.006Z,15.57
2023-04-17T20:33:42.989Z,15.00
2023-04-17T20:36:10.035Z,16.83
2023-04-17T20:38:36.938Z,19.33
2023-04-17T20:41:03.952Z,19.35
2023-04-17T20:43:33.673Z,16.27
2023-04-17T20:46:00.658Z,18.67
2023-04-17T20:48:27.574Z,15.20
2023-04-17T20:50:54.969Z,20.17
2023-04-17T20:53:21.908Z,15.90
2023-04-17T20:55:48.879Z,18.63
2023-04-17T20:58:15.695Z,19.83
2023-04-17T21:00:54.394Z,19.05
2023-04-17T21:03:30.637Z,17.45
2023-04-17T21:05:57.685Z,22.48
2023-04-17T21:08:24.848Z,16.67
2023-04-17T21:10:52.056Z,13.35
2023-04-17T21:13:18.894Z,20.10
2023-04-17T21:15:45.786Z,15.25
2023-04-17T21:18:12.762Z,18.85
2023-04-17T21:20:39.778Z,23.27
2023-04-17T21:23:06.725Z,14.98
2023-04-17T21:25:33.765Z,17.58
2023-04-17T21:28:00.829Z,18.45
2023-04-17T21:30:27.839Z,20.55
2023-04-17T21:32:54.799Z,17.63
2023-04-17T21:35:22.365Z,16.75
2023-04-17T21:37:49.219Z,27.48
2023-04-17T21:40:17.714Z,21.92
2023-04-17T21:42:44.609Z,16.50
2023-04-17T21:45:12.318Z,23.00
2023-04-17T21:47:39.740Z,20.30
2023-04-17T21:50:07.960Z,20.20
2023-04-17T21:52:34.869Z,20.95
2023-04-17T21:55:05.307Z,29.60
2023-04-17T21:57:32.186Z,22.73
2023-04-17T21:59:59.190Z,20.88
2023-04-17T22:02:26.475Z,17.75
2023-04-17T22:04:53.644Z,20.65
2023-04-17T22:07:21.660Z,18.58
2023-04-17T22:09:48.921Z,21.02
2023-04-17T22:12:23.445Z,19.05
2023-04-17T22:14:50.376Z,22.88
2023-04-17T22:17:17.387Z,23.30
2023-04-17T22:19:44.311Z,23.67
2023-04-17T22:22:11.198Z,19.70
2023-04-17T22:24:38.208Z,20.60
2023-04-17T22:27:05.535Z,23.10
2023-04-17T22:29:32.551Z,18.58
2023-04-17T22:31:59.411Z,20.17
2023-04-17T22:34:26.272Z,21.65
2023-04-17T22:36:53.173Z,20.02
2023-04-17T22:39:20.040Z,24.88
2023-04-17T22:41:47.202Z,18.88
2023-04-17T22:44:14.223Z,22.73
2023-04-17T22:46:41.384Z,19.67
2023-04-17T22:49:08.275Z,16.83
2023-04-17T22:51:35.164Z,17.52
2023-04-17T22:54:08.761Z,17.15
2023-04-17T22:56:46.274Z,21.08
2023-04-17T22:59:13.163Z,22.23
2023-04-17T23:01:40.033Z,14.18
2023-04-17T23:04:07.189Z,17.42
2023-04-17T23:06:34.047Z,17.83
2023-04-17T23:09:01.531Z,15.88
2023-04-17T23:11:31.060Z,17.48
2023-04-17T23:13:58.001Z,24.60
2023-04-17T23:16:25.224Z,20.63
2023-04-17T23:18:52.307Z,19.77
2023-04-17T23:21:19.131Z,25.52
2023-04-17T23:23:48.179Z,18.60
2023-04-17T23:26:15.605Z,14.27
2023-04-17T23:28:42.689Z,17.30
2023-04-17T23:31:09.647Z,16.92
2023-04-17T23:33:36.607Z,20.98
2023-04-17T23:36:03.493Z,13.00
2023-04-17T23:38:30.995Z,13.70
2023-04-17T23:40:57.829Z,20.40
2023-04-17T23:43:24.779Z,17.10
2023-04-17T23:45:51.639Z,17.38
2023-04-17T23:48:18.525Z,18.80
2023-04-17T23:50:45.604Z,23.25
2023-04-17T23:53:12.498Z,24.58
2023-04-17T23:55:39.429Z,17.85
2023-04-17T23:58:06.392Z,19.00
